createdAt,value
2022-10-19T00:01:15.521Z,23.13
2022-10-19T00:03:43.406Z,23.13
2022-10-19T00:06:12.060Z,23.11
2022-10-19T00:08:39.415Z,23.11
2022-10-19T00:11:06.668Z,23.11
2022-10-19T00:13:33.631Z,23.11
2022-10-19T00:16:01.685Z,23.09
2022-10-19T00:18:28.629Z,23.09
2022-10-19T00:21:05.848Z,23.09
2022-10-19T00:23:33.309Z,23.08
2022-10-19T00:26:00.835Z,23.11
2022-10-19T00:28:28.471Z,23.11
2022-10-19T00:30:55.649Z,23.11
2022-10-19T00:33:23.309Z,23.10
2022-10-19T00:35:50.560Z,23.10
2022-10-19T00:38:19.254Z,23.10
2022-10-19T00:40:46.203Z,23.09
2022-10-19T00:43:15.392Z,23.11
2022-10-19T00:45:42.340Z,23.11
2022-10-19T00:48:09.796Z,23.10
2022-10-19T00:50:37.050Z,23.10
2022-10-19T00:53:04.096Z,23.10
2022-10-19T00:55:31.655Z,23.08
2022-10-19T00:57:58.914Z,23.07
2022-10-19T01:00:25.960Z,23.08
2022-10-19T01:02:53.213Z,23.07
2022-10-19T01:05:20.291Z,23.06
2022-10-19T01:07:47.103Z,23.05
2022-10-19T01:10:14.391Z,23.05
2022-10-19T01:13:06.803Z,23.03
2022-10-19T01:15:57.546Z,23.03
2022-10-19T01:18:32.740Z,23.03
2022-10-19T01:21:29.224Z,23.02
2022-10-19T01:24:11.699Z,23.07
2022-10-19T01:26:53.994Z,23.07
2022-10-19T01:29:58.524Z,23.05
2022-10-19T01:32:28.338Z,23.05
2022-10-19T01:35:27.642Z,23.00
2022-10-19T01:38:17.935Z,23.05
2022-10-19T01:40:55.220Z,23.12
2022-10-19T01:43:34.998Z,23.13
2022-10-19T01:46:41.443Z,23.12
2022-10-19T01:49:41.256Z,23.12
2022-10-19T01:52:10.765Z,23.13
2022-10-19T01:54:43.135Z,23.13
2022-10-19T01:57:12.541Z,23.09
2022-10-19T01:59:39.379Z,23.08
2022-10-19T02:02:09.400Z,23.07
2022-10-19T02:04:37.721Z,23.06
2022-10-19T02:07:07.181Z,23.05
2022-10-19T02:09:33.919Z,23.04
2022-10-19T02:12:03.942Z,23.04
2022-10-19T02:14:36.157Z,23.02
2022-10-19T02:17:05.408Z,23.02
2022-10-19T02:19:32.560Z,23.02
2022-10-19T02:21:59.813Z,23.01
2022-10-19T02:24:26.963Z,22.98
2022-10-19T02:26:54.526Z,22.98
2022-10-19T02:29:21.264Z,22.96
2022-10-19T02:31:48.515Z,22.95
2022-10-19T02:34:15.462Z,22.94
2022-10-19T02:36:42.818Z,22.94
2022-10-19T02:39:10.587Z,22.93
2022-10-19T02:41:57.991Z,22.94
2022-10-19T02:44:24.952Z,22.92
2022-10-19T02:46:57.771Z,22.94
2022-10-19T02:49:25.298Z,22.93
2022-10-19T02:51:58.398Z,22.94
2022-10-19T02:54:25.535Z,22.92
2022-10-19T02:56:52.585Z,22.93
2022-10-19T02:59:19.733Z,22.92
2022-10-19T03:01:46.686Z,22.91
2022-10-19T03:04:13.421Z,22.91
2022-10-19T03:06:40.368Z,22.91
2022-10-19T03:09:07.107Z,22.90
2022-10-19T03:11:34.158Z,22.90
2022-10-19T03:14:01.008Z,22.89
2022-10-19T03:16:28.049Z,22.90
2022-10-19T03:18:55.200Z,22.89
2022-10-19T03:21:22.190Z,22.89
2022-10-19T03:23:49.101Z,22.88
2022-10-19T03:26:17.574Z,22.89
2022-10-19T03:28:44.536Z,22.88
2022-10-19T03:31:11.776Z,22.89
2022-10-19T03:33:38.566Z,22.88
2022-10-19T03:36:24.911Z,22.88
2022-10-19T03:38:53.197Z,22.86
2022-10-19T03:41:21.932Z,22.86
2022-10-19T03:43:48.881Z,22.87
2022-10-19T03:46:16.381Z,22.84
2022-10-19T03:48:43.122Z,22.84
2022-10-19T03:51:16.417Z,22.83
2022-10-19T03:53:43.978Z,22.83
2022-10-19T03:56:11.994Z,22.86
2022-10-19T03:58:40.431Z,22.84
2022-10-19T04:01:13.263Z,22.84
2022-10-19T04:03:40.470Z,22.85
2022-10-19T04:06:18.352Z,22.86
2022-10-19T04:08:49.726Z,22.85
2022-10-19T04:11:18.606Z,22.88
2022-10-19T04:13:50.877Z,22.88
2022-10-19T04:16:19.369Z,22.87
2022-10-19T04:18:46.613Z,22.88
2022-10-19T04:21:25.655Z,22.86
2022-10-19T04:23:53.199Z,22.86
2022-10-19T04:26:20.555Z,22.86
2022-10-19T04:28:47.643Z,22.84
2022-10-19T04:31:14.957Z,22.82
2022-10-19T04:33:42.030Z,22.82
2022-10-19T04:36:10.899Z,22.83
2022-10-19T04:38:38.767Z,22.82
2022-10-19T04:41:13.323Z,22.82
2022-10-19T04:43:40.440Z,22.81
2022-10-19T04:46:12.673Z,22.84
2022-10-19T04:48:40.372Z,22.85
2022-10-19T04:51:07.008Z,22.86
2022-10-19T04:53:34.570Z,22.84
2022-10-19T04:56:04.280Z,22.81
2022-10-19T04:58:31.328Z,22.83
2022-10-19T05:00:58.803Z,22.83
2022-10-19T05:03:25.527Z,22.83
2022-10-19T05:05:52.473Z,22.82
2022-10-19T05:08:19.318Z,22.84
2022-10-19T05:10:47.719Z,22.84
2022-10-19T05:13:14.769Z,22.83
2022-10-19T05:15:41.997Z,22.83
2022-10-19T05:18:08.845Z,22.83
2022-10-19T05:20:35.785Z,22.80
2022-10-19T05:23:06.314Z,22.81
2022-10-19T05:25:34.305Z,22.80
2022-10-19T05:28:01.230Z,22.82
2022-10-19T05:30:28.072Z,22.81
2022-10-19T05:32:55.022Z,22.81
2022-10-19T05:35:22.672Z,22.80
2022-10-19T05:37:54.954Z,22.81
2022-10-19T05:40:22.102Z,22.83
2022-10-19T05:42:48.945Z,22.84
2022-10-19T05:45:15.893Z,22.83
2022-10-19T05:47:42.735Z,22.82
2022-10-19T05:50:09.582Z,22.83
2022-10-19T05:52:36.628Z,22.82
2022-10-19T05:55:04.000Z,22.82
2022-10-19T05:57:32.601Z,22.82
2022-10-19T05:59:59.718Z,22.82
2022-10-19T06:02:26.663Z,22.83
2022-10-19T06:04:53.301Z,22.83
2022-10-19T06:07:20.348Z,22.83
2022-10-19T06:09:47.602Z,22.84
2022-10-19T06:12:15.838Z,22.84
2022-10-19T06:14:43.546Z,22.87
2022-10-19T06:17:10.897Z,22.85
2022-10-19T06:19:37.847Z,22.88
2022-10-19T06:22:04.685Z,22.90
2022-10-19T06:24:31.564Z,22.90
2022-10-19T06:26:58.579Z,22.90
2022-10-19T06:29:25.426Z,22.91
2022-10-19T06:31:53.858Z,22.85
2022-10-19T06:34:20.698Z,22.88
2022-10-19T06:36:47.591Z,22.85
2022-10-19T06:39:14.329Z,22.77
2022-10-19T06:41:41.377Z,22.79
2022-10-19T06:44:08.532Z,22.79
2022-10-19T06:46:35.399Z,22.80
2022-10-19T06:49:02.323Z,22.79
2022-10-19T06:51:31.487Z,22.80
2022-10-19T06:53:58.359Z,22.81
2022-10-19T06:56:26.331Z,22.82
2022-10-19T06:58:53.579Z,22.81
2022-10-19T07:01:21.189Z,22.83
2022-10-19T07:03:50.748Z,22.83
2022-10-19T07:06:18.103Z,22.82
2022-10-19T07:08:44.946Z,22.85
2022-10-19T07:11:15.583Z,22.86
2022-10-19T07:13:42.526Z,22.87
2022-10-19T07:16:16.010Z,22.90
2022-10-19T07:18:46.862Z,22.91
2022-10-19T07:21:15.854Z,22.96
2022-10-19T07:23:44.337Z,22.97
2022-10-19T07:26:15.365Z,22.99
2022-10-19T07:28:44.685Z,23.00
2022-10-19T07:31:12.683Z,23.03
2022-10-19T07:33:40.003Z,23.06
2022-10-19T07:36:07.778Z,23.07
2022-10-19T07:38:35.329Z,23.10
2022-10-19T07:41:09.044Z,23.12
2022-10-19T07:43:35.982Z,23.15
2022-10-19T07:46:05.791Z,23.18
2022-10-19T07:48:33.872Z,23.19
2022-10-19T07:51:01.018Z,23.24
2022-10-19T07:53:27.859Z,23.27
2022-10-19T07:55:55.117Z,23.28
2022-10-19T07:58:22.401Z,23.30
2022-10-19T08:00:49.342Z,23.33
2022-10-19T08:06:05.988Z,23.39
2022-10-19T08:08:33.430Z,23.42
2022-10-19T08:11:10.494Z,23.43
2022-10-19T08:13:37.419Z,23.43
2022-10-19T08:16:05.012Z,23.44
2022-10-19T08:21:03.991Z,23.45
2022-10-19T08:23:30.835Z,23.48
2022-10-19T08:25:59.225Z,23.48
2022-10-19T08:28:26.160Z,23.49
2022-10-19T08:30:57.713Z,23.51
2022-10-19T08:33:25.270Z,23.52
2022-10-19T08:35:53.616Z,23.53
2022-10-19T08:38:20.289Z,23.55
2022-10-19T08:40:47.243Z,23.56
2022-10-19T08:43:36.509Z,23.55
2022-10-19T08:46:17.904Z,23.59
2022-10-19T08:48:46.166Z,23.62
2022-10-19T08:51:12.910Z,23.63
2022-10-19T08:53:53.267Z,23.64
2022-10-19T08:56:49.221Z,23.63
2022-10-19T08:59:29.961Z,23.70
2022-10-19T09:02:00.920Z,23.73
2022-10-19T09:04:36.965Z,23.71
2022-10-19T09:07:18.961Z,23.70
2022-10-19T09:10:31.886Z,23.73
2022-10-19T09:13:02.726Z,23.78
2022-10-19T09:15:39.295Z,23.81
2022-10-19T09:18:18.962Z,23.79
2022-10-19T09:20:49.150Z,23.79
2022-10-19T09:23:57.781Z,23.80
2022-10-19T09:26:30.770Z,23.84
2022-10-19T09:28:58.741Z,23.82
2022-10-19T09:31:40.523Z,23.81
2022-10-19T09:34:20.968Z,23.80
2022-10-19T09:36:51.421Z,23.81
2022-10-19T09:39:18.163Z,23.81
2022-10-19T09:41:57.399Z,23.80
2022-10-19T09:44:25.062Z,23.77
2022-10-19T09:47:25.314Z,23.78
2022-10-19T09:49:52.025Z,23.79
2022-10-19T09:52:32.697Z,23.77
2022-10-19T09:55:25.444Z,23.73
2022-10-19T09:58:00.788Z,23.78
2022-10-19T10:00:39.219Z,23.81
2022-10-19T10:03:07.261Z,23.79
2022-10-19T10:05:38.635Z,23.76
2022-10-19T10:08:12.541Z,23.76
2022-10-19T10:10:43.600Z,23.76
2022-10-19T10:13:17.720Z,23.73
2022-10-19T10:15:48.733Z,23.75
2022-10-19T10:18:17.213Z,23.77
2022-10-19T10:20:59.751Z,23.75
2022-10-19T10:23:31.275Z,23.73
2022-10-19T10:25:58.526Z,23.72
2022-10-19T10:28:27.939Z,23.71
2022-10-19T10:31:00.940Z,23.71
2022-10-19T10:33:45.588Z,23.69
2022-10-19T10:36:13.243Z,23.71
2022-10-19T10:38:41.328Z,23.73
2022-10-19T10:41:17.379Z,23.70
2022-10-19T10:44:04.503Z,23.69
2022-10-19T10:46:39.427Z,23.68
2022-10-19T10:49:08.115Z,23.70
2022-10-19T10:51:40.899Z,23.68
2022-10-19T10:54:26.176Z,23.68
2022-10-19T10:57:16.414Z,23.69
2022-10-19T11:00:01.841Z,23.66
2022-10-19T11:02:29.096Z,23.69
2022-10-19T11:05:11.611Z,23.69
2022-10-19T11:07:43.468Z,23.70
2022-10-19T11:10:35.590Z,23.70
2022-10-19T11:13:30.421Z,23.71
2022-10-19T11:15:59.600Z,23.81
2022-10-19T11:18:34.326Z,23.84
2022-10-19T11:21:04.038Z,23.81
2022-10-19T11:23:37.541Z,23.80
2022-10-19T11:26:34.963Z,23.79
2022-10-19T11:29:39.016Z,23.82
2022-10-19T11:32:20.501Z,23.83
2022-10-19T11:35:09.563Z,23.80
2022-10-19T11:38:17.558Z,23.81
2022-10-19T11:41:17.896Z,23.87
2022-10-19T11:43:55.088Z,23.91
2022-10-19T11:46:47.327Z,23.87
2022-10-19T11:49:23.388Z,23.85
2022-10-19T11:51:59.552Z,23.82
2022-10-19T11:54:58.750Z,23.81
2022-10-19T11:57:31.318Z,23.82
2022-10-19T12:00:15.427Z,23.80
2022-10-19T12:03:01.461Z,23.82
2022-10-19T12:05:48.791Z,23.83
2022-10-19T12:08:43.941Z,23.82
2022-10-19T12:11:33.988Z,23.79
2022-10-19T12:14:04.515Z,23.78
2022-10-19T12:16:50.613Z,23.74
2022-10-19T12:19:18.481Z,23.78
2022-10-19T12:21:46.450Z,23.79
2022-10-19T12:24:17.080Z,23.77
2022-10-19T12:26:45.686Z,23.77
2022-10-19T12:29:21.553Z,23.77
2022-10-19T12:31:50.822Z,23.77
2022-10-19T12:34:26.879Z,23.76
2022-10-19T12:37:03.790Z,23.76
2022-10-19T12:39:50.960Z,23.75
2022-10-19T12:42:22.532Z,23.77
2022-10-19T12:45:19.275Z,23.76
2022-10-19T12:48:08.444Z,23.77
2022-10-19T12:50:53.513Z,23.74
2022-10-19T12:53:35.616Z,23.71
2022-10-19T12:56:07.272Z,23.71
2022-10-19T12:58:36.471Z,23.72
2022-10-19T13:01:05.730Z,23.72
2022-10-19T13:03:42.163Z,23.72
2022-10-19T13:06:12.297Z,23.71
2022-10-19T13:08:41.527Z,23.71
2022-10-19T13:11:16.798Z,23.72
2022-10-19T13:14:04.744Z,23.71
